Airfield :
LOGIN :

Register | Disclaimer

   EN    FR    IT 

 










Legend :    VFR   Marginal VFR   IFR   Intensive IFR   Very Intensive IFR
Visi :
Ceiling :
>= 8 km
>= 3000ft
5 to 8 km
1000 to 3000 ft
1500m to 5 km
500 to 1000 ft
800 to 1500m
200 to 500 ft
< 800m
< 200 ft
Symbols :   Thunderstorms  Fog  Heavy snow  Heavy precipitations  Wind > 20 kt
SIGMETs :     Misc.  Thunderstorms  Icing  Turbulence  Mountain Waves  Volcanic Ashes







- Airport Elevation : 485 ft
- IATA code : QSA


LELL - Sabadell

CURRENT METAR :
  • 221100Z 00000KT 9999 FEW030 22/13 Q1022

EXPIRED METARs :
  • 221030Z 10001KT 9999 FEW030 22/13 Q1022
  • 221000Z 15002KT 9999 FEW030 21/14 Q1022
  • 220930Z VRB01KT CAVOK 20/15 Q1021
  • 220900Z VRB02KT CAVOK 19/14 Q1021

TAF TAF LELL
Valid from the 22 at 09:00 until the 23 at 09:00 UTC


220800Z 2209/2309 VRB03KT 9999 FEW030 TX21/2213Z TN12/2306Z
BECMG 2209/2212 12007KT
BECMG 2217/2219 VRB03KT
No reported NOTAMs for that airfield.
1 SIGMET reported for the Barcelona FIR (LECB) :
 
Severe turbulence
LECB SIGMET 1 VALID 221000/221200 LEVA
LECB BARCELONA UIR SEV TURB FCST WI N3653 W00149 - N3654 W00001 - N3548 W00207 - N3653 W00149 FL270/350 STNR NC=



MET'MAP, your aeronautical weather chart ! - Copyright ORBIFLY December 2007 - Disclaimer

ORBIFLY MET'MAP TEAM :

Programming & Development : Alexandra Zaïnal
Concept & Development : Baudouin d'Aumeries
Co-Development & Prog : Marc-Olivier Méhu
Technical & hardware support : Manuel Goepfert

Contact : metmap@orbifly.com




SOURCES & CREDITS :

   NOAA